sensor_id;sensor_type;location;lat;lon;timestamp;pressure;altitude;pressure_sealevel;temperature;humidity
57234;BME280;43090;52.604;13.318;2022-11-20T00:00:52;100582.00;;;-0.55;100.00
57234;BME280;43090;52.604;13.318;2022-11-20T00:03:23;100582.78;;;-0.52;100.00
57234;BME280;43090;52.604;13.318;2022-11-20T00:05:50;100586.91;;;-0.43;100.00
57234;BME280;43090;52.604;13.318;2022-11-20T00:08:18;100640.41;;;-0.44;100.00
57234;BME280;43090;52.604;13.318;2022-11-20T00:10:51;100574.22;;;-0.93;100.00
57234;BME280;43090;52.604;13.318;2022-11-20T00:13:19;100575.22;;;-0.64;100.00
57234;BME280;43090;52.604;13.318;2022-11-20T00:15:45;100613.16;;;-0.41;100.00
57234;BME280;43090;52.604;13.318;2022-11-20T00:18:28;100617.97;;;-0.24;100.00
57234;BME280;43090;52.604;13.318;2022-11-20T00:21:11;100633.50;;;-0.48;100.00
57234;BME280;43090;52.604;13.318;2022-11-20T00:23:43;100563.44;;;-1.15;100.00
57234;BME280;43090;52.604;13.318;2022-11-20T00:26:12;100571.72;;;-0.97;100.00
57234;BME280;43090;52.604;13.318;2022-11-20T00:28:55;100585.56;;;-0.91;100.00
57234;BME280;43090;52.604;13.318;2022-11-20T00:46:30;100585.47;;;-0.88;100.00
57234;BME280;43090;52.604;13.318;2022-11-20T00:48:57;100580.28;;;-0.89;100.00
57234;BME280;43090;52.604;13.318;2022-11-20T00:51:26;100615.28;;;-0.87;100.00
57234;BME280;43090;52.604;13.318;2022-11-20T00:54:26;100603.69;;;-0.47;100.00
57234;BME280;43090;52.604;13.318;2022-11-20T00:56:53;100631.53;;;-0.40;100.00
57234;BME280;43090;52.604;13.318;2022-11-20T01:02:18;100576.28;;;-0.71;100.00
57234;BME280;43090;52.604;13.318;2022-11-20T01:07:37;100580.84;;;-0.78;100.00
57234;BME280;43090;52.604;13.318;2022-11-20T01:10:20;100572.53;;;-0.94;100.00
57234;BME280;43090;52.604;13.318;2022-11-20T01:13:04;100601.69;;;-0.70;100.00
57234;BME280;43090;52.604;13.318;2022-11-20T01:16:24;100564.13;;;-1.08;100.00
57234;BME280;43090;52.604;13.318;2022-11-20T01:19:23;100562.72;;;-0.87;100.00
57234;BME280;43090;52.604;13.318;2022-11-20T01:58:03;100561.00;;;-0.90;100.00
57234;BME280;43090;52.604;13.318;2022-11-20T02:03:24;100551.16;;;-0.81;100.00
57234;BME280;43090;52.604;13.318;2022-11-20T02:14:38;100565.47;;;-0.60;100.00
57234;BME280;43090;52.604;13.318;2022-11-20T02:38:54;100588.13;;;-0.23;100.00
57234;BME280;43090;52.604;13.318;2022-11-20T02:52:45;100525.22;;;-0.95;100.00
57234;BME280;43090;52.604;13.318;2022-11-20T02:55:12;100540.97;;;-0.94;100.00
57234;BME280;43090;52.604;13.318;2022-11-20T03:03:18;100598.69;;;-0.25;100.00
57234;BME280;43090;52.604;13.318;2022-11-20T03:08:26;100533.53;;;-1.11;100.00
57234;BME280;43090;52.604;13.318;2022-11-20T03:17:28;100515.09;;;-0.76;100.00
57234;BME280;43090;52.604;13.318;2022-11-20T03:22:55;100535.72;;;-0.62;100.00
57234;BME280;43090;52.604;13.318;2022-11-20T03:41:36;100563.88;;;-0.35;100.00
57234;BME280;43090;52.604;13.318;2022-11-20T03:44:21;100528.25;;;-0.46;100.00
57234;BME280;43090;52.604;13.318;2022-11-20T03:46:48;100505.53;;;-0.49;100.00
57234;BME280;43090;52.604;13.318;2022-11-20T05:37:41;100492.16;;;-0.71;100.00
57234;BME280;43090;52.604;13.318;2022-11-20T05:40:33;100458.97;;;-1.07;100.00
57234;BME280;43090;52.604;13.318;2022-11-20T06:54:34;100484.66;;;-0.25;100.00
57234;BME280;43090;52.604;13.318;2022-11-20T06:57:02;100429.97;;;-0.44;99.92
57234;BME280;43090;52.604;13.318;2022-11-20T08:36:02;100400.28;;;0.08;95.54
57234;BME280;43090;52.604;13.318;2022-11-20T08:38:30;100419.91;;;0.26;95.73
57234;BME280;43090;52.604;13.318;2022-11-20T08:41:01;100422.81;;;0.43;94.69
57234;BME280;43090;52.604;13.318;2022-11-20T08:43:52;100473.44;;;0.53;95.70
57234;BME280;43090;52.604;13.318;2022-11-20T08:46:20;100411.16;;;0.24;95.44
57234;BME280;43090;52.604;13.318;2022-11-20T09:13:03;100420.81;;;-0.02;97.27
57234;BME280;43090;52.604;13.318;2022-11-20T09:18:18;100443.16;;;0.38;95.39
57234;BME280;43090;52.604;13.318;2022-11-20T09:20:46;100396.03;;;0.04;94.39
57234;BME280;43090;52.604;13.318;2022-11-20T09:23:17;100399.28;;;0.39;93.38
57234;BME280;43090;52.604;13.318;2022-11-20T09:25:51;100471.50;;;0.83;93.34
57234;BME280;43090;52.604;13.318;2022-11-20T09:34:07;100403.25;;;0.51;92.54
57234;BME280;43090;52.604;13.318;2022-11-20T09:36:34;100412.84;;;0.53;92.42
57234;BME280;43090;52.604;13.318;2022-11-20T09:39:01;100470.94;;;0.99;92.82
57234;BME280;43090;52.604;13.318;2022-11-20T09:41:51;100397.75;;;0.57;91.62
57234;BME280;43090;52.604;13.318;2022-11-20T09:44:49;100432.50;;;0.93;91.10
57234;BME280;43090;52.604;13.318;2022-11-20T09:50:53;100445.84;;;0.89;91.32
57234;BME280;43090;52.604;13.318;2022-11-20T09:53:46;100400.84;;;0.93;91.86
57234;BME280;43090;52.604;13.318;2022-11-20T09:57:00;100422.59;;;0.75;91.79
57234;BME280;43090;52.604;13.318;2022-11-20T09:59:40;100445.41;;;1.25;89.81
57234;BME280;43090;52.604;13.318;2022-11-20T10:08:21;100435.66;;;1.03;91.73
57234;BME280;43090;52.604;13.318;2022-11-20T10:18:34;100419.75;;;0.81;92.89
57234;BME280;43090;52.604;13.318;2022-11-20T10:32:19;100410.47;;;0.71;92.67
57234;BME280;43090;52.604;13.318;2022-11-20T10:35:33;100355.59;;;0.57;92.75
57234;BME280;43090;52.604;13.318;2022-11-20T11:01:41;100360.38;;;0.71;90.80
57234;BME280;43090;52.604;13.318;2022-11-20T11:04:23;100384.09;;;0.71;90.82
57234;BME280;43090;52.604;13.318;2022-11-20T11:06:58;100381.81;;;0.36;91.48
57234;BME280;43090;52.604;13.318;2022-11-20T11:09:35;100360.00;;;0.06;93.44
57234;BME280;43090;52.604;13.318;2022-11-20T11:12:09;100404.38;;;0.69;92.96
57234;BME280;43090;52.604;13.318;2022-11-20T11:14:49;100384.13;;;0.45;93.93
57234;BME280;43090;52.604;13.318;2022-11-20T11:17:28;100361.84;;;0.54;92.99
57234;BME280;43090;52.604;13.318;2022-11-20T11:22:34;100398.50;;;0.86;92.35
57234;BME280;43090;52.604;13.318;2022-11-20T11:25:01;100386.03;;;0.40;91.66
57234;BME280;43090;52.604;13.318;2022-11-20T11:27:27;100394.16;;;0.59;92.44
57234;BME280;43090;52.604;13.318;2022-11-20T11:30:11;100402.50;;;0.47;92.89
57234;BME280;43090;52.604;13.318;2022-11-20T11:32:38;100380.56;;;-0.06;94.80
57234;BME280;43090;52.604;13.318;2022-11-20T11:35:11;100382.09;;;0.02;96.51
57234;BME280;43090;52.604;13.318;2022-11-20T11:37:45;100399.59;;;0.55;95.93
57234;BME280;43090;52.604;13.318;2022-11-20T12:30:19;100313.88;;;0.70;94.17
57234;BME280;43090;52.604;13.318;2022-11-20T12:39:02;100348.66;;;0.54;94.88
57234;BME280;43090;52.604;13.318;2022-11-20T12:48:09;100354.31;;;0.69;93.52
57234;BME280;43090;52.604;13.318;2022-11-20T12:51:31;100344.81;;;0.88;93.42
57234;BME280;43090;52.604;13.318;2022-11-20T13:17:51;100334.47;;;0.35;94.67
57234;BME280;43090;52.604;13.318;2022-11-20T13:20:36;100270.25;;;-0.12;95.17
57234;BME280;43090;52.604;13.318;2022-11-20T13:23:32;100313.38;;;0.35;95.18
57234;BME280;43090;52.604;13.318;2022-11-20T13:26:28;100305.50;;;0.09;96.06
57234;BME280;43090;52.604;13.318;2022-11-20T13:40:35;100267.00;;;0.05;95.77
57234;BME280;43090;52.604;13.318;2022-11-20T13:43:59;100286.06;;;0.12;95.09
57234;BME280;43090;52.604;13.318;2022-11-20T13:46:43;100321.38;;;0.31;95.49
57234;BME280;43090;52.604;13.318;2022-11-20T13:49:37;100268.84;;;-0.22;97.05
57234;BME280;43090;52.604;13.318;2022-11-20T13:55:33;100316.63;;;0.18;95.87
57234;BME280;43090;52.604;13.318;2022-11-20T14:01:24;100295.06;;;0.06;96.47
57234;BME280;43090;52.604;13.318;2022-11-20T14:03:52;100268.66;;;0.08;96.14
57234;BME280;43090;52.604;13.318;2022-11-20T14:06:41;100307.56;;;0.25;95.99
57234;BME280;43090;52.604;13.318;2022-11-20T14:09:30;100272.06;;;0.11;95.86
57234;BME280;43090;52.604;13.318;2022-11-20T14:12:33;100328.31;;;0.34;96.68
57234;BME280;43090;52.604;13.318;2022-11-20T14:23:09;100272.56;;;-0.03;97.01
57234;BME280;43090;52.604;13.318;2022-11-20T14:25:45;100272.69;;;0.18;96.53
57234;BME280;43090;52.604;13.318;2022-11-20T14:28:26;100276.41;;;-0.13;97.34
57234;BME280;43090;52.604;13.318;2022-11-20T14:30:58;100272.63;;;-0.31;97.74
57234;BME280;43090;52.604;13.318;2022-11-20T14:33:37;100273.28;;;-0.24;98.81
57234;BME280;43090;52.604;13.318;2022-11-20T14:36:18;100301.97;;;0.09;98.21
57234;BME280;43090;52.604;13.318;2022-11-20T14:38:49;100284.75;;;0.00;98.09
57234;BME280;43090;52.604;13.318;2022-11-20T14:41:20;100291.78;;;0.25;97.69
57234;BME280;43090;52.604;13.318;2022-11-20T14:43:54;100266.94;;;-0.19;98.45
57234;BME280;43090;52.604;13.318;2022-11-20T14:46:23;100286.41;;;0.03;98.76
57234;BME280;43090;52.604;13.318;2022-11-20T14:48:57;100293.97;;;-0.13;99.48
57234;BME280;43090;52.604;13.318;2022-11-20T14:51:37;100280.53;;;-0.06;99.76
57234;BME280;43090;52.604;13.318;2022-11-20T14:54:27;100295.44;;;-0.05;99.39
57234;BME280;43090;52.604;13.318;2022-11-20T15:00:34;100281.44;;;-0.07;99.46
57234;BME280;43090;52.604;13.318;2022-11-20T15:03:36;100249.28;;;0.10;98.67
57234;BME280;43090;52.604;13.318;2022-11-20T15:18:02;100260.50;;;-0.10;99.85
57234;BME280;43090;52.604;13.318;2022-11-20T15:20:31;100269.38;;;-0.12;99.16
57234;BME280;43090;52.604;13.318;2022-11-20T15:26:40;100247.47;;;-0.13;99.69
57234;BME280;43090;52.604;13.318;2022-11-20T15:29:25;100300.56;;;0.24;99.17
57234;BME280;43090;52.604;13.318;2022-11-20T15:32:13;100262.13;;;-0.06;99.99
57234;BME280;43090;52.604;13.318;2022-11-20T15:34:42;100246.13;;;-0.25;99.80
57234;BME280;43090;52.604;13.318;2022-11-20T15:37:14;100264.97;;;-0.12;100.00
57234;BME280;43090;52.604;13.318;2022-11-20T15:39:58;100229.78;;;-0.35;98.89
57234;BME280;43090;52.604;13.318;2022-11-20T15:42:29;100252.53;;;0.17;98.90
57234;BME280;43090;52.604;13.318;2022-11-20T15:45:32;100285.41;;;0.30;97.58
57234;BME280;43090;52.604;13.318;2022-11-20T15:48:12;100269.81;;;0.01;97.63
57234;BME280;43090;52.604;13.318;2022-11-20T15:53:21;100229.75;;;-0.33;98.64
57234;BME280;43090;52.604;13.318;2022-11-20T15:56:04;100247.47;;;0.12;97.68
57234;BME280;43090;52.604;13.318;2022-11-20T15:58:59;100219.44;;;-0.14;96.96
57234;BME280;43090;52.604;13.318;2022-11-20T16:01:31;100215.63;;;-0.30;97.19
57234;BME280;43090;52.604;13.318;2022-11-20T16:03:59;100231.63;;;-0.11;96.69
57234;BME280;43090;52.604;13.318;2022-11-20T16:06:29;100225.97;;;-0.01;95.31
57234;BME280;43090;52.604;13.318;2022-11-20T16:08:56;100267.63;;;-0.12;96.16
57234;BME280;43090;52.604;13.318;2022-11-20T16:11:25;100249.97;;;-0.10;96.32
57234;BME280;43090;52.604;13.318;2022-11-20T16:13:53;100217.16;;;-0.50;96.79
57234;BME280;43090;52.604;13.318;2022-11-20T16:16:46;100219.22;;;-0.60;97.31
57234;BME280;43090;52.604;13.318;2022-11-20T16:19:14;100218.38;;;-0.60;98.33
57234;BME280;43090;52.604;13.318;2022-11-20T16:21:43;100215.81;;;-0.62;97.02
57234;BME280;43090;52.604;13.318;2022-11-20T16:24:45;100214.91;;;-0.61;97.88
57234;BME280;43090;52.604;13.318;2022-11-20T16:27:13;100235.09;;;-0.63;98.33
57234;BME280;43090;52.604;13.318;2022-11-20T16:29:40;100214.19;;;-0.66;98.95
57234;BME280;43090;52.604;13.318;2022-11-20T16:32:08;100238.94;;;-0.46;98.20
57234;BME280;43090;52.604;13.318;2022-11-20T16:34:36;100206.78;;;-0.55;98.11
57234;BME280;43090;52.604;13.318;2022-11-20T16:37:03;100225.91;;;-0.24;97.54
57234;BME280;43090;52.604;13.318;2022-11-20T16:39:38;100215.84;;;-0.63;98.06
57234;BME280;43090;52.604;13.318;2022-11-20T16:42:05;100209.66;;;-0.62;98.88
57234;BME280;43090;52.604;13.318;2022-11-20T16:44:31;100249.81;;;-0.57;99.32
57234;BME280;43090;52.604;13.318;2022-11-20T16:47:01;100258.69;;;-0.08;98.25
57234;BME280;43090;52.604;13.318;2022-11-20T16:49:39;100240.81;;;-0.23;98.36
57234;BME280;43090;52.604;13.318;2022-11-20T16:52:08;100262.81;;;-0.01;98.03
57234;BME280;43090;52.604;13.318;2022-11-20T16:54:35;100237.53;;;-0.05;96.85
57234;BME280;43090;52.604;13.318;2022-11-20T16:57:01;100277.00;;;0.21;96.95
57234;BME280;43090;52.604;13.318;2022-11-20T16:59:28;100229.44;;;-0.51;98.22
57234;BME280;43090;52.604;13.318;2022-11-20T17:01:57;100268.78;;;-0.21;97.23
57234;BME280;43090;52.604;13.318;2022-11-20T17:04:25;100226.44;;;-0.40;97.32
57234;BME280;43090;52.604;13.318;2022-11-20T17:06:51;100231.41;;;-0.30;97.64
57234;BME280;43090;52.604;13.318;2022-11-20T17:09:18;100258.13;;;-0.18;97.47
57234;BME280;43090;52.604;13.318;2022-11-20T17:11:45;100288.69;;;0.12;96.86
57234;BME280;43090;52.604;13.318;2022-11-20T17:14:24;100229.56;;;-0.28;97.05
57234;BME280;43090;52.604;13.318;2022-11-20T17:16:53;100221.63;;;-0.27;97.11
57234;BME280;43090;52.604;13.318;2022-11-20T17:19:20;100240.59;;;-0.17;96.30
57234;BME280;43090;52.604;13.318;2022-11-20T17:21:48;100220.19;;;-0.10;94.96
57234;BME280;43090;52.604;13.318;2022-11-20T17:24:15;100240.41;;;0.13;95.78
57234;BME280;43090;52.604;13.318;2022-11-20T17:26:47;100209.59;;;-0.09;95.53
57234;BME280;43090;52.604;13.318;2022-11-20T17:29:16;100246.13;;;0.01;94.34
57234;BME280;43090;52.604;13.318;2022-11-20T17:31:58;100208.97;;;-0.15;95.49
57234;BME280;43090;52.604;13.318;2022-11-20T17:35:16;100266.84;;;0.35;95.04
57234;BME280;43090;52.604;13.318;2022-11-20T17:38:06;100236.56;;;-0.27;96.07
57234;BME280;43090;52.604;13.318;2022-11-20T17:41:02;100244.13;;;-0.18;95.81
57234;BME280;43090;52.604;13.318;2022-11-20T17:55:58;100203.06;;;-0.22;95.98
57234;BME280;43090;52.604;13.318;2022-11-20T17:58:43;100225.16;;;-0.28;95.84
57234;BME280;43090;52.604;13.318;2022-11-20T18:01:12;100211.97;;;-0.01;95.17
57234;BME280;43090;52.604;13.318;2022-11-20T18:03:45;100239.16;;;0.23;94.22
57234;BME280;43090;52.604;13.318;2022-11-20T18:06:21;100218.66;;;0.08;94.98
57234;BME280;43090;52.604;13.318;2022-11-20T18:09:00;100190.84;;;0.01;93.96
57234;BME280;43090;52.604;13.318;2022-11-20T18:11:37;100229.66;;;0.19;94.17
57234;BME280;43090;52.604;13.318;2022-11-20T18:14:05;100212.50;;;-0.17;95.63
57234;BME280;43090;52.604;13.318;2022-11-20T18:16:52;100249.41;;;0.07;95.68
57234;BME280;43090;52.604;13.318;2022-11-20T18:19:22;100201.84;;;-0.39;96.12
57234;BME280;43090;52.604;13.318;2022-11-20T18:21:48;100200.56;;;-0.02;95.12
57234;BME280;43090;52.604;13.318;2022-11-20T18:24:17;100216.16;;;0.05;95.45
57234;BME280;43090;52.604;13.318;2022-11-20T18:26:44;100202.06;;;0.06;95.25
57234;BME280;43090;52.604;13.318;2022-11-20T18:29:16;100228.16;;;0.12;94.81
57234;BME280;43090;52.604;13.318;2022-11-20T18:31:43;100176.16;;;-0.30;95.28
57234;BME280;43090;52.604;13.318;2022-11-20T18:34:10;100195.16;;;-0.22;96.08
57234;BME280;43090;52.604;13.318;2022-11-20T18:36:42;100208.94;;;0.10;95.71
57234;BME280;43090;52.604;13.318;2022-11-20T18:39:11;100179.44;;;-0.24;94.76
57234;BME280;43090;52.604;13.318;2022-11-20T18:41:41;100209.41;;;-0.03;94.86
57234;BME280;43090;52.604;13.318;2022-11-20T18:44:31;100199.34;;;-0.17;95.69
57234;BME280;43090;52.604;13.318;2022-11-20T18:47:27;100172.00;;;-0.12;94.97
57234;BME280;43090;52.604;13.318;2022-11-20T18:49:58;100225.25;;;0.20;95.18
57234;BME280;43090;52.604;13.318;2022-11-20T18:52:28;100219.25;;;0.16;94.46
57234;BME280;43090;52.604;13.318;2022-11-20T18:54:55;100189.31;;;-0.05;93.72
57234;BME280;43090;52.604;13.318;2022-11-20T18:57:24;100183.81;;;-0.24;94.42
57234;BME280;43090;52.604;13.318;2022-11-20T18:59:54;100193.81;;;-0.09;92.95
57234;BME280;43090;52.604;13.318;2022-11-20T19:02:38;100183.34;;;-0.36;94.44
57234;BME280;43090;52.604;13.318;2022-11-20T19:05:18;100176.06;;;-0.27;95.08
57234;BME280;43090;52.604;13.318;2022-11-20T19:16:12;100237.59;;;-0.06;95.76
57234;BME280;43090;52.604;13.318;2022-11-20T19:18:49;100200.56;;;-0.52;96.30
57234;BME280;43090;52.604;13.318;2022-11-20T19:21:18;100221.16;;;-0.40;96.20
57234;BME280;43090;52.604;13.318;2022-11-20T19:23:56;100202.28;;;-0.51;95.89
57234;BME280;43090;52.604;13.318;2022-11-20T19:26:34;100216.16;;;-0.46;96.84
57234;BME280;43090;52.604;13.318;2022-11-20T19:29:01;100182.47;;;-0.88;96.79
57234;BME280;43090;52.604;13.318;2022-11-20T19:31:28;100179.50;;;-0.77;96.73
57234;BME280;43090;52.604;13.318;2022-11-20T19:33:56;100213.66;;;-0.51;96.50
57234;BME280;43090;52.604;13.318;2022-11-20T19:36:29;100210.63;;;-0.38;95.98
57234;BME280;43090;52.604;13.318;2022-11-20T19:38:59;100216.72;;;-0.38;95.34
57234;BME280;43090;52.604;13.318;2022-11-20T19:48:07;100178.94;;;-0.87;96.35
57234;BME280;43090;52.604;13.318;2022-11-20T19:55:03;100187.84;;;-0.64;95.84
57234;BME280;43090;52.604;13.318;2022-11-20T19:58:02;100226.66;;;-0.46;95.75
57234;BME280;43090;52.604;13.318;2022-11-20T20:01:16;100186.88;;;-0.62;96.11
57234;BME280;43090;52.604;13.318;2022-11-20T20:04:18;100176.22;;;-0.84;96.54
57234;BME280;43090;52.604;13.318;2022-11-20T20:10:29;100158.34;;;-1.01;95.83
57234;BME280;43090;52.604;13.318;2022-11-20T20:13:34;100153.97;;;-1.01;95.79
57234;BME280;43090;52.604;13.318;2022-11-20T20:25:16;100215.19;;;-0.70;95.76
57234;BME280;43090;52.604;13.318;2022-11-20T20:28:28;100163.38;;;-0.93;95.97
57234;BME280;43090;52.604;13.318;2022-11-20T20:31:59;100173.03;;;-0.94;95.65
57234;BME280;43090;52.604;13.318;2022-11-20T20:36:04;100125.53;;;-1.14;97.06
57234;BME280;43090;52.604;13.318;2022-11-20T20:55:57;100120.56;;;-1.24;96.32
57234;BME280;43090;52.604;13.318;2022-11-20T21:48:52;100094.47;;;-2.15;100.00
57234;BME280;43090;52.604;13.318;2022-11-20T21:51:44;100112.50;;;-2.34;100.00
57234;BME280;43090;52.604;13.318;2022-11-20T21:54:10;100106.69;;;-2.14;100.00
57234;BME280;43090;52.604;13.318;2022-11-20T21:56:37;100096.16;;;-1.84;100.00
57234;BME280;43090;52.604;13.318;2022-11-20T21:59:04;100085.88;;;-1.62;99.88
57234;BME280;43090;52.604;13.318;2022-11-20T22:01:31;100057.28;;;-1.99;100.00
57234;BME280;43090;52.604;13.318;2022-11-20T22:03:59;100055.28;;;-2.21;98.04
57234;BME280;43090;52.604;13.318;2022-11-20T22:06:33;100081.06;;;-2.06;100.00
57234;BME280;43090;52.604;13.318;2022-11-20T22:20:15;100086.75;;;-2.21;98.56
57234;BME280;43090;52.604;13.318;2022-11-20T22:22:42;100087.22;;;-2.07;99.17
57234;BME280;43090;52.604;13.318;2022-11-20T22:25:09;100073.34;;;-2.10;99.37
57234;BME280;43090;52.604;13.318;2022-11-20T22:27:35;100067.41;;;-2.47;100.00
57234;BME280;43090;52.604;13.318;2022-11-20T22:30:02;100099.66;;;-2.13;99.83
57234;BME280;43090;52.604;13.318;2022-11-20T22:32:28;100041.66;;;-2.32;98.91
57234;BME280;43090;52.604;13.318;2022-11-20T22:42:17;100058.00;;;-2.24;99.00
57234;BME280;43090;52.604;13.318;2022-11-20T22:44:44;100082.19;;;-2.14;98.92
57234;BME280;43090;52.604;13.318;2022-11-20T22:47:13;100026.34;;;-2.48;97.75
57234;BME280;43090;52.604;13.318;2022-11-20T22:49:40;100068.03;;;-2.39;97.63
57234;BME280;43090;52.604;13.318;2022-11-20T22:52:07;100047.19;;;-2.75;99.98
57234;BME280;43090;52.604;13.318;2022-11-20T22:54:34;100071.56;;;-2.71;100.00
57234;BME280;43090;52.604;13.318;2022-11-20T22:57:00;100071.03;;;-2.21;100.00
57234;BME280;43090;52.604;13.318;2022-11-20T22:59:27;100021.47;;;-2.60;100.00
57234;BME280;43090;52.604;13.318;2022-11-20T23:01:53;100074.28;;;-2.76;99.64
57234;BME280;43090;52.604;13.318;2022-11-20T23:04:20;100034.06;;;-3.41;100.00
57234;BME280;43090;52.604;13.318;2022-11-20T23:06:50;100004.19;;;-2.99;100.00
57234;BME280;43090;52.604;13.318;2022-11-20T23:19:19;99995.59;;;-3.04;100.00
57234;BME280;43090;52.604;13.318;2022-11-20T23:25:43;100006.59;;;-2.91;100.00
57234;BME280;43090;52.604;13.318;2022-11-20T23:32:02;100025.66;;;-3.19;100.00
57234;BME280;43090;52.604;13.318;2022-11-20T23:34:31;100013.88;;;-3.03;100.00
57234;BME280;43090;52.604;13.318;2022-11-20T23:36:58;100018.63;;;-2.84;100.00
57234;BME280;43090;52.604;13.318;2022-11-20T23:39:26;100021.19;;;-2.82;100.00
57234;BME280;43090;52.604;13.318;2022-11-20T23:41:53;99978.13;;;-3.04;100.00
57234;BME280;43090;52.604;13.318;2022-11-20T23:44:19;100038.81;;;-2.56;100.00
57234;BME280;43090;52.604;13.318;2022-11-20T23:46:47;100001.38;;;-2.93;100.00
57234;BME280;43090;52.604;13.318;2022-11-20T23:49:13;100039.19;;;-2.39;100.00
57234;BME280;43090;52.604;13.318;2022-11-20T23:51:40;100013.50;;;-2.57;100.00
57234;BME280;43090;52.604;13.318;2022-11-20T23:54:07;99987.31;;;-2.57;100.00
57234;BME280;43090;52.604;13.318;2022-11-20T23:56:34;99988.69;;;-2.45;100.00
57234;BME280;43090;52.604;13.318;2022-11-20T23:59:00;99988.53;;;-2.11;100.00
